DW2736 Weather Reports


Display with metric or nautical units.
time (UTC)temp
F
wind
direction
speed
MPH
gust
MPH
rain 1hr
in
rain 24hr
in
rain mn
in
humidity
%
barometer
mb
20190323163229 45 130 0.0 0.0 0.00 1.20 0.90 97 1020.6
20190323162725 45 133 0.0 0.0 0.00 1.20 0.90 97 1020.5
20190323162223 45 85 0.0 0.0 0.01 1.20 0.90 97 1020.4
20190323161719 45 86 0.0 0.0 0.01 1.20 0.90 97 1020.5
20190323161217 45 104 0.0 0.0 0.02 1.20 0.90 97 1020.4
20190323160731 45 73 0.0 0.0 0.02 1.20 0.90 97 1020.4
20190323160241 45 78 0.0 0.0 0.03 1.20 0.90 97 1020.5
20190323155720 45 64 0.0 0.0 0.04 1.20 0.90 97 1020.5
20190323155216 45 61 0.0 0.0 0.04 1.20 0.90 97 1020.5
20190323154733 45 62 0.0 0.0 0.05 1.20 0.90 97 1020.5
20190323154228 45 76 0.0 0.0 0.06 1.20 0.90 97 1020.5
20190323153722 46 86 0.0 0.0 0.07 1.20 0.90 97 1020.7
20190323153217 46 70 0.0 0.0 0.09 1.20 0.90 97 1020.8
20190323152716 46 33 0.0 0.0 0.10 1.20 0.90 97 1021.0
20190323152232 46 23 0.0 0.0 0.10 1.19 0.89 97 1021.0
20190323151729 46 22 0.0 0.0 0.11 1.19 0.89 97 1020.9
20190323151227 46 19 0.0 0.0 0.11 1.18 0.88 97 1020.8
20190323150723 46 17 0.0 0.0 0.12 1.18 0.88 97 1020.9
20190323150231 46 17 0.0 0.0 0.12 1.17 0.87 97 1020.9
20190323145713 46 17 0.0 0.0 0.12 1.16 0.86 97 1020.8
20190323145230 46 17 0.0 0.0 0.13 1.16 0.86 97 1020.8
20190323144726 46 17 0.0 0.0 0.13 1.15 0.85 97 1020.8
20190323144222 46 17 0.0 0.0 0.13 1.14 0.84 97 1020.7
20190323143718 46 17 0.0 0.0 0.12 1.12 0.82 97 1020.6
20190323143214 46 17 0.0 0.0 0.11 1.11 0.81 97 1020.6
20190323142731 46 17 0.0 0.0 0.11 1.10 0.80 97 1020.7
20190323142226 46 17 0.0 0.0 0.10 1.09 0.79 97 1020.7
20190323141723 46 17 0.0 0.0 0.09 1.08 0.78 97 1020.6
20190323141222 46 17 0.0 0.0 0.09 1.07 0.77 97 1020.5
20190323140722 46 17 0.0 0.0 0.08 1.06 0.76 97 1020.5
20190323140231 46 17 0.0 0.0 0.08 1.05 0.75 97 1020.4
20190323135714 46 17 0.0 0.0 0.07 1.04 0.74 97 1020.4
20190323135229 46 17 0.0 0.0 0.07 1.03 0.73 97 1020.3
20190323134724 46 17 0.0 0.0 0.06 1.02 0.72 97 1020.4
20190323134221 46 17 0.0 0.0 0.06 1.01 0.71 97 1020.3
20190323133715 46 17 0.0 0.0 0.06 1.00 0.70 97 1020.3
20190323133231 46 17 0.0 0.0 0.06 1.00 0.70 97 1020.3
20190323132731 46 17 0.0 0.0 0.06 0.99 0.69 97 1020.2
20190323132226 46 17 0.0 0.0 0.07 0.99 0.69 97 1020.2
20190323131724 46 17 0.0 0.0 0.07 0.98 0.68 97 1020.1
20190323131220 46 17 0.0 0.0 0.08 0.98 0.68 97 1020.0
20190323130716 46 17 0.0 0.0 0.09 0.98 0.68 97 1020.0
20190323130244 46 17 0.0 0.0 0.09 0.97 0.67 97 1020.0
20190323125725 46 287 0.0 0.0 0.11 0.97 0.67 97 1019.9
20190323125220 46 287 0.0 0.0 0.11 0.96 0.66 97 1019.9
20190323124720 46 287 0.0 0.0 0.12 0.96 0.66 97 1019.9
20190323124216 46 287 0.0 0.0 0.12 0.95 0.65 97 1019.9
20190323123712 46 287 0.0 0.0 0.11 0.94 0.64 97 1019.9
20190323123227 47 287 0.0 0.0 0.12 0.94 0.64 97 1019.9
20190323122724 47 287 0.0 0.0 0.12 0.93 0.63 97 1019.9
20190323122218 47 287 0.0 0.0 0.12 0.92 0.62 97 1019.9
20190323121714 47 287 0.0 0.0 0.11 0.91 0.61 97 1019.9
20190323121228 46 287 0.0 0.0 0.12 0.90 0.60 97 1019.9
20190323120724 47 287 0.0 0.0 0.11 0.89 0.59 97 1019.9
20190323120234 47 287 0.0 0.0 0.11 0.88 0.58 96 1019.9
20190323115717 47 287 0.0 0.0 0.10 0.86 0.56 97 1019.9
20190323115214 47 287 0.0 0.0 0.10 0.85 0.55 97 1019.9
20190323114731 47 287 0.0 0.0 0.09 0.84 0.54 97 1019.9
20190323114227 47 167 0.0 0.0 0.09 0.83 0.53 97 1019.9
20190323113730 47 167 0.0 0.0 0.09 0.83 0.53 97 1019.9
20190323113228 47 167 0.0 0.0 0.09 0.82 0.52 97 1019.7
20190323112724 47 167 0.0 0.0 0.09 0.81 0.51 97 1019.7
20190323112222 47 167 0.0 0.0 0.08 0.80 0.50 97 1019.7
20190323111717 47 167 0.0 0.0 0.08 0.79 0.49 97 1019.8
20190323111218 47 167 0.0 0.0 0.07 0.78 0.48 97 1019.8
20190323110716 47 167 0.0 0.0 0.08 0.78 0.48 97 1019.8
20190323110246 47 167 0.0 0.0 0.08 0.77 0.47 97 1019.8
20190323105730 47 167 0.0 0.0 0.08 0.76 0.46 97 1019.8
20190323105228 47 167 0.0 0.0 0.08 0.75 0.45 97 1019.8
20190323104726 47 167 0.0 0.0 0.09 0.75 0.45 97 1019.9
20190323104226 47 167 0.0 0.0 0.09 0.74 0.44 97 1019.9
20190323103722 47 167 0.0 0.0 0.10 0.74 0.44 97 1020.0
20190323103220 47 167 0.0 0.0 0.11 0.73 0.43 97 1020.0
20190323102715 47 167 0.0 0.0 0.10 0.72 0.42 97 1020.1
20190323102231 47 167 0.0 0.0 0.12 0.72 0.42 97 1020.1
20190323101727 47 167 0.0 0.0 0.12 0.71 0.41 97 1020.1
20190323101223 47 167 0.0 0.0 0.14 0.71 0.41 97 1020.0
20190323100717 47 167 0.0 0.0 0.14 0.70 0.40 97 1020.1
20190323100244 47 167 0.0 0.0 0.14 0.69 0.39 97 1020.2
20190323095724 47 167 0.0 0.0 0.14 0.68 0.38 97 1020.2
20190323095223 47 167 0.0 0.0 0.13 0.67 0.37 97 1020.2
20190323094720 47 167 0.0 0.0 0.13 0.66 0.36 97 1020.2
20190323094217 47 167 0.0 0.0 0.13 0.65 0.35 97 1020.3
20190323093714 47 167 0.0 0.0 0.12 0.63 0.33 97 1020.3
20190323093230 47 167 0.0 0.0 0.12 0.62 0.32 97 1020.4
20190323092726 47 167 0.0 0.0 0.11 0.61 0.31 96 1020.3
20190323092222 47 167 0.0 0.0 0.11 0.60 0.30 96 1020.4
20190323091718 47 167 0.0 0.0 0.11 0.59 0.29 96 1020.5
20190323091233 47 167 0.0 0.0 0.10 0.57 0.27 96 1020.5
20190323090729 47 167 0.0 0.0 0.10 0.56 0.26 96 1020.5
20190323090239 47 167 0.0 0.0 0.10 0.55 0.25 96 1020.6
20190323085719 47 167 0.0 0.0 0.10 0.54 0.24 96 1020.6
20190323085215 47 167 0.0 0.0 0.10 0.53 0.23 96 1020.7
20190323084733 47 167 0.0 0.0 0.11 0.53 0.23 96 1020.7
20190323084228 47 167 0.0 0.0 0.12 0.52 0.22 96 1020.7
20190323083727 47 167 0.0 0.0 0.11 0.51 0.21 96 1020.7
20190323083226 47 167 0.0 0.0 0.11 0.50 0.20 96 1020.7
20190323082723 47 167 0.0 0.0 0.12 0.50 0.20 96 1020.8
20190323082220 47 167 0.0 0.0 0.12 0.49 0.19 96 1020.9
20190323081733 47 167 0.0 0.0 0.12 0.48 0.18 96 1020.9
20190323081230 47 167 0.0 0.0 0.13 0.47 0.17 96 1021.0
20190323080725 47 167 0.0 0.0 0.13 0.46 0.16 96 1021.0
20190323080236 47 167 0.0 0.0 0.13 0.45 0.15 96 1021.0
20190323075718 47 167 0.0 0.0 0.14 0.44 0.14 96 1021.0
20190323075215 47 167 0.0 0.0 0.13 0.43 0.13 96 1021.0
20190323074714 47 167 0.0 0.0 0.13 0.42 0.12 96 1021.0
20190323074232 47 167 0.0 0.0 0.12 0.40 0.10 96 1021.0
20190323073728 47 167 0.0 0.0 0.13 0.40 0.10 96 1021.1
20190323073226 47 167 0.0 0.0 0.13 0.39 0.09 96 1021.1
20190323072722 47 167 0.0 0.0 0.12 0.38 0.08 96 1021.1
20190323072217 47 167 0.0 0.0 0.13 0.37 0.07 96 1021.1
20190323071716 47 167 0.0 0.0 0.11 0.35 0.05 96 1021.0
20190323071233 47 167 0.0 0.0 0.11 0.34 0.04 96 1021.1
20190323070728 47 167 0.0 0.0 0.11 0.33 0.03 96 1021.1
20190323070238 47 167 0.0 0.0 0.10 0.32 0.02 96 1021.0
20190323065721 47 167 0.0 0.0 0.09 0.30 0.30 96 1021.1
20190323065218 47 167 0.0 0.0 0.10 0.30 0.30 96 1021.1
20190323064733 47 167 0.0 0.0 0.09 0.29 0.29 96 1021.1
20190323064230 47 167 0.0 0.0 0.09 0.28 0.28 96 1021.1
20190323063716 48 167 0.0 0.0 0.08 0.27 0.27 96 1021.0
20190323063233 48 167 0.0 0.0 0.08 0.26 0.26 96 1021.0
20190323062731 48 167 0.0 0.0 0.07 0.25 0.25 96 1021.1
20190323062224 48 167 0.0 0.0 0.07 0.24 0.24 96 1021.2
20190323061720 48 167 0.0 0.0 0.07 0.24 0.24 96 1021.3
20190323061217 48 167 0.0 0.0 0.07 0.23 0.23 96 1021.3
20190323060731 48 167 0.0 0.0 0.06 0.22 0.22 96 1021.3
20190323060238 48 167 0.0 0.0 0.07 0.22 0.22 96 1021.3
20190323055714 48 167 0.0 0.0 0.06 0.21 0.21 95 1021.4
20190323055228 48 167 0.0 0.0 0.05 0.20 0.20 95 1021.4
20190323054727 48 167 0.0 0.0 0.06 0.20 0.20 95 1021.4
20190323054223 48 167 0.0 0.0 0.05 0.19 0.19 96 1021.4
20190323053718 48 167 0.0 0.0 0.05 0.19 0.19 96 1021.4
20190323053233 48 167 0.0 0.0 0.04 0.18 0.18 96 1021.5
20190323052730 48 167 0.0 0.0 0.04 0.18 0.18 95 1021.4
20190323052226 48 167 0.0 0.0 0.03 0.17 0.17 95 1021.5
20190323051723 48 167 0.0 0.0 0.04 0.17 0.17 95 1021.5
20190323051217 48 167 0.0 0.0 0.03 0.16 0.16 95 1021.5
20190323050714 48 167 0.0 0.0 0.03 0.16 0.16 95 1021.6
20190323050244 48 167 0.0 0.0 0.03 0.15 0.15 95 1021.6
20190323045720 48 167 0.0 0.0 0.03 0.15 0.15 95 1021.6
20190323045233 48 167 0.0 0.0 0.03 0.15 0.15 95 1021.6
20190323044728 48 167 0.0 0.0 0.02 0.14 0.14 95 1021.6
20190323044227 48 167 0.0 0.0 0.03 0.14 0.14 95 1021.6
20190323043721 48 167 0.0 0.0 0.03 0.14 0.14 95 1021.6
20190323043231 48 167 0.0 0.0 0.03 0.14 0.14 95 1021.7
20190323042726 48 167 0.0 0.0 0.03 0.14 0.14 95 1021.7
20190323042223 48 167 0.0 0.0 0.03 0.14 0.14 95 1021.7
20190323041724 48 167 0.0 0.0 0.03 0.13 0.13 95 1021.7
20190323041222 48 167 0.0 0.0 0.03 0.13 0.13 95 1021.7
20190323040718 48 167 0.0 0.0 0.03 0.13 0.13 95 1021.5
20190323040244 48 167 0.0 0.0 0.02 0.12 0.12 95 1021.4
20190323035729 48 167 0.0 0.0 0.02 0.12 0.12 95 1021.3
20190323035224 48 167 0.0 0.0 0.03 0.12 0.12 95 1021.3
20190323034719 48 167 0.0 0.0 0.03 0.12 0.12 95 1021.3
20190323034233 48 167 0.0 0.0 0.02 0.11 0.11 94 1021.3
20190323033728 48 167 0.0 0.0 0.02 0.11 0.11 94 1021.2
20190323033222 48 167 0.0 0.0 0.02 0.11 0.11 94 1021.2
20190323032718 48 167 0.0 0.0 0.02 0.11 0.11 94 1021.1
20190323032229 48 167 0.0 0.0 0.02 0.11 0.11 94 1021.1
20190323031724 48 167 0.0 0.0 0.01 0.10 0.10 94 1021.0
20190323031219 48 167 0.0 0.0 0.02 0.10 0.10 94 1020.9
20190323030714 49 167 0.0 0.0 0.02 0.10 0.10 94 1021.0
20190323030242 49 167 0.0 0.0 0.02 0.10 0.10 94 1021.0
20190323025722 49 167 0.0 0.0 0.02 0.10 0.10 94 1021.0
20190323025220 49 167 0.0 0.0 0.01 0.09 0.09 94 1021.1
20190323024714 49 167 0.0 0.0 0.01 0.09 0.09 94 1021.0
20190323024228 49 167 0.0 0.0 0.01 0.09 0.09 94 1020.9
20190323023727 49 167 0.0 0.0 0.02 0.09 0.09 94 1021.0
20190323023223 49 167 0.0 0.0 0.02 0.09 0.09 94 1021.0
20190323022720 49 167 0.0 0.0 0.02 0.09 0.09 93 1020.9
20190323022218 49 167 0.0 0.0 0.02 0.09 0.09 94 1020.9
20190323021714 49 167 0.0 0.0 0.03 0.09 0.09 94 1020.9
20190323021229 50 167 0.0 0.0 0.02 0.08 0.08 94 1020.9
20190323020724 50 167 0.0 0.0 0.02 0.08 0.08 94 1021.0
20190323020233 50 167 0.0 0.0 0.02 0.08 0.08 94 1021.0
20190323015715 50 167 0.0 0.0 0.02 0.08 0.08 94 1020.9
20190323015230 50 167 0.0 0.0 0.02 0.08 0.08 94 1020.9
20190323014726 50 167 0.0 0.0 0.03 0.08 0.08 94 1021.1
20190323014221 50 167 0.0 0.0 0.03 0.08 0.08 93 1021.2
20190323013715 50 167 0.0 0.0 0.02 0.07 0.07 93 1021.4
20190323013231 50 167 0.0 0.0 0.02 0.07 0.07 93 1021.4
20190323012728 50 167 0.0 0.0 0.02 0.07 0.07 93 1021.5
20190323012228 50 167 0.0 0.0 0.03 0.07 0.07 93 1021.4
20190323011726 50 167 0.0 0.0 0.02 0.06 0.06 93 1021.4
20190323011223 50 167 0.0 0.0 0.03 0.06 0.06 92 1021.4
20190323010721 50 167 0.0 0.0 0.03 0.06 0.06 92 1021.5
20190323010232 50 167 0.0 0.0 0.03 0.06 0.06 92 1021.5
20190323005733 50 167 0.0 0.0 0.04 0.06 0.06 92 1021.5
20190323005229 50 167 0.0 0.0 0.04 0.06 0.06 91 1021.5
20190323004724 50 167 0.0 0.0 0.03 0.05 0.05 91 1021.5
20190323004217 51 167 0.0 0.0 0.03 0.05 0.05 91 1021.4
20190323003732 51 167 0.0 0.0 0.04 0.05 0.05 91 1021.5
20190323003229 51 167 0.0 0.0 0.04 0.05 0.05 91 1021.5
20190323002724 51 167 0.0 0.0 0.04 0.05 0.05 90 1021.4
20190323002220 51 167 0.0 0.0 0.04 0.04 0.04 89 1021.5
20190323001716 52 167 0.0 0.0 0.04 0.04 0.04 89 1021.6
20190323001213 52 167 0.0 0.0 0.03 0.03 0.03 88 1021.6
20190323000729 52 167 0.0 0.0 0.03 0.03 0.03 87 1021.7
20190323000241 52 167 0.0 0.0 0.03 0.03 0.03 86 1021.7
20190322235720 52 167 0.0 0.0 0.02 0.02 0.02 86 1021.7
20190322235216 52 167 0.0 0.0 0.02 0.02 0.02 86 1021.7
20190322234716 53 167 0.0 0.0 0.02 0.02 0.02 85 1021.6
20190322234214 53 167 0.0 0.0 0.02 0.02 0.02 84 1021.8
20190322233730 53 167 0.0 0.0 0.01 0.01 0.01 83 1021.8
20190322233228 53 167 0.0 0.0 0.01 0.01 0.01 82 1021.8
20190322232722 54 167 0.0 0.0 0.01 0.01 0.01 81 1021.9
20190322232217 54 167 0.0 0.0 0.00 0.00 0.00 80 1021.8
20190322231732 54 167 0.0 0.0 0.00 0.00 0.00 80 1021.7
20190322231227 54 167 0.0 0.0 0.00 0.00 0.00 79 1021.7
20190322230721 55 167 0.0 0.0 0.00 0.00 0.00 77 1021.6
20190322230230 55 167 0.0 0.0 0.00 0.00 0.00 75 1021.7
20190322225713 55 167 0.0 0.0 0.00 0.00 0.00 74 1021.6
20190322225232 55 167 0.0 0.0 0.00 0.00 0.00 74 1021.6
20190322224726 56 167 0.0 0.0 0.00 0.00 0.00 72 1021.7
20190322224222 56 167 0.0 0.0 0.00 0.00 0.00 72 1021.7
20190322223722 56 167 0.0 0.0 0.00 0.00 0.00 72 1021.7
20190322223214 56 167 0.0 0.0 0.00 0.00 0.00 71 1021.7
20190322222728 56 167 0.0 0.0 0.00 0.00 0.00 68 1021.7
20190322222223 56 167 0.0 0.0 0.00 0.00 0.00 67 1021.8
20190322221719 56 167 0.0 0.0 0.00 0.00 0.00 67 1021.8
20190322221219 56 167 0.0 0.0 0.00 0.00 0.00 68 1021.7
20190322220716 56 167 0.0 0.0 0.00 0.00 0.00 68 1021.7
20190322220244 56 167 0.0 0.0 0.00 0.00 0.00 67 1021.8
20190322215725 56 167 0.0 0.0 0.00 0.00 0.00 67 1021.7
20190322215222 56 167 0.0 0.0 0.00 0.00 0.00 65 1021.7
20190322214717 56 167 0.0 0.0 0.00 0.00 0.00 63 1021.7
20190322214214 57 218 0.0 0.0 0.00 0.00 0.00 64 1021.9
20190322213729 57 177 0.0 0.0 0.00 0.00 0.00 64 1021.9
20190322213226 57 180 0.0 0.0 0.00 0.00 0.00 65 1021.8
20190322212722 57 180 0.0 0.0 0.00 0.00 0.00 63 1021.8
20190322212220 57 184 0.0 0.0 0.00 0.00 0.00 62 1021.9
20190322211718 57 184 0.0 0.0 0.00 0.00 0.00 63 1021.8
20190322211215 57 192 0.0 0.0 0.00 0.00 0.00 61 1021.8
20190322210731 57 194 0.0 0.0 0.00 0.00 0.00 63 1021.8
20190322210238 57 195 0.0 0.0 0.00 0.00 0.00 62 1021.9
20190322205720 57 170 0.0 0.0 0.00 0.00 0.00 61 1021.9
20190322205214 57 192 0.0 0.0 0.00 0.00 0.00 63 1022.0
20190322204729 57 192 0.0 0.0 0.00 0.00 0.00 63 1022.1
20190322204223 57 198 0.0 0.0 0.00 0.00 0.00 63 1022.2
20190322203720 57 181 0.0 0.0 0.00 0.00 0.00 62 1022.3
20190322203216 57 206 0.0 0.0 0.00 0.00 0.00 65 1022.2
20190322202731 57 264 0.0 0.0 0.00 0.00 0.00 64 1022.3
20190322202225 57 180 0.0 0.0 0.00 0.00 0.00 63 1022.4
20190322201723 57 169 0.0 0.0 0.00 0.00 0.00 62 1022.3
20190322201220 57 198 0.0 0.0 0.00 0.00 0.00 64 1022.4
20190322200717 57 318 0.0 0.0 0.00 0.00 0.00 64 1022.4
20190322200237 57 170 0.0 0.0 0.00 0.00 0.00 64 1022.5
20190322195717 57 178 0.0 0.0 0.00 0.00 0.00 61 1022.5
20190322195214 57 176 0.0 0.0 0.00 0.00 0.00 65 1022.5
20190322194715 57 176 0.0 0.0 0.00 0.00 0.00 63 1022.5
20190322194230 57 177 0.0 0.0 0.00 0.00 0.00 64 1022.5
20190322193727 57 184 0.0 0.0 0.00 0.00 0.00 64 1022.4
20190322193222 57 185 0.0 0.0 0.00 0.00 0.00 62 1022.3
20190322192717 57 158 0.0 0.0 0.00 0.00 0.00 63 1022.3
20190322192213 57 158 0.0 0.0 0.00 0.00 0.00 64 1022.3
20190322191731 57 188 0.0 0.0 0.00 0.00 0.00 66 1022.3
20190322191228 57 173 0.0 0.0 0.00 0.00 0.00 64 1022.3
20190322190723 57 159 0.0 0.0 0.00 0.00 0.00 64 1022.4
20190322190232 57 174 0.0 0.0 0.00 0.00 0.00 62 1022.3
20190322185716 57 247 0.0 0.0 0.00 0.00 0.00 63 1022.2
20190322185231 57 247 0.0 0.0 0.00 0.00 0.00 66 1022.2
20190322184727 57 250 0.0 0.0 0.00 0.00 0.00 66 1022.3
20190322184223 57 250 0.0 0.0 0.00 0.00 0.00 66 1022.3
20190322183719 57 250 0.0 0.0 0.00 0.00 0.00 65 1022.2
20190322183215 56 250 0.0 0.0 0.00 0.00 0.00 66 1022.2
20190322182715 56 250 0.0 0.0 0.00 0.00 0.00 65 1022.2
20190322182230 56 262 0.0 0.0 0.00 0.00 0.00 66 1022.2
20190322181725 56 274 0.0 0.0 0.00 0.00 0.00 67 1022.2
20190322181220 56 310 0.0 0.0 0.00 0.00 0.00 68 1022.2
20190322180714 56 310 0.0 0.0 0.00 0.00 0.00 69 1022.1
20190322180244 55 310 0.0 0.0 0.00 0.00 0.00 68 1022.1
20190322175722 55 310 0.0 0.0 0.00 0.00 0.00 69 1022.1
20190322175217 54 310 0.0 0.0 0.00 0.00 0.00 72 1022.1
20190322174714 53 310 0.0 0.0 0.00 0.00 0.00 75 1022.1
20190322174231 53 310 0.0 0.0 0.00 0.00 0.00 77 1022.1
20190322173728 52 310 0.0 0.0 0.00 0.00 0.00 78 1022.0
20190322173222 51 310 0.0 0.0 0.00 0.00 0.00 79 1022.1
20190322172718 51 310 0.0 0.0 0.00 0.00 0.00 80 1022.2
20190322172233 50 310 0.0 0.0 0.00 0.00 0.00 82 1022.2
20190322171727 50 310 0.0 0.0 0.00 0.00 0.00 82 1022.2
20190322171223 50 310 0.0 0.0 0.00 0.00 0.00 84 1022.2
20190322170718 49 310 0.0 0.0 0.00 0.00 0.00 84 1022.2
20190322170230 49 310 0.0 0.0 0.00 0.00 0.00 84 1022.1
20190322165731 49 310 0.0 0.0 0.00 0.00 0.00 84 1022.1
20190322165227 48 310 0.0 0.0 0.00 0.00 0.00 85 1021.9
20190322164723 48 310 0.0 0.0 0.00 0.00 0.00 86 1021.8
20190322164218 48 310 0.0 0.0 0.00 0.00 0.00 86 1021.8
20190322163715 47 310 0.0 0.0 0.00 0.00 0.00 86 1021.8